createdAt,value
2022-10-23T00:08:53.347Z,84.12
2022-10-23T00:18:54.990Z,84.67
2022-10-23T00:28:56.608Z,85.67
2022-10-23T00:38:58.188Z,86.51
2022-10-23T00:49:00.485Z,86.65
2022-10-23T00:59:02.294Z,87.42
2022-10-23T01:09:06.927Z,88.46
2022-10-23T01:19:11.457Z,88.68
2022-10-23T01:29:23.221Z,89.46
2022-10-23T01:39:27.826Z,90.09
2022-10-23T01:49:30.402Z,90.60
2022-10-23T01:59:35.384Z,91.44
2022-10-23T02:09:37.217Z,94.24
2022-10-23T02:19:45.872Z,94.03
2022-10-23T02:29:51.992Z,92.61
2022-10-23T02:39:55.114Z,93.43
2022-10-23T02:49:59.406Z,94.24
2022-10-23T03:00:08.064Z,96.89
2022-10-23T03:10:10.295Z,96.47
2022-10-23T03:20:12.838Z,99.06
2022-10-23T03:30:14.405Z,100.00
2022-10-23T03:40:16.228Z,99.30
2022-10-23T03:50:19.542Z,98.90
2022-10-23T04:00:21.991Z,99.29
2022-10-23T04:10:23.668Z,100.00
2022-10-23T04:20:25.271Z,100.00
2022-10-23T04:30:26.913Z,100.00
2022-10-23T04:40:28.567Z,100.00
2022-10-23T04:50:30.261Z,100.00
2022-10-23T05:00:31.962Z,100.00
2022-10-23T05:10:33.615Z,100.00
2022-10-23T05:20:36.321Z,100.00
2022-10-23T05:30:38.522Z,100.00
2022-10-23T05:40:40.257Z,100.00
2022-10-23T05:50:42.692Z,100.00
2022-10-23T06:00:44.250Z,100.00
2022-10-23T06:10:55.818Z,100.00
2022-10-23T06:21:10.897Z,100.00
2022-10-23T06:31:15.638Z,100.00
2022-10-23T06:41:18.850Z,100.00
2022-10-23T06:51:22.056Z,100.00
2022-10-23T07:01:23.892Z,100.00
2022-10-23T07:11:25.894Z,100.00
2022-10-23T07:21:28.695Z,100.00
2022-10-23T07:31:33.655Z,100.00
2022-10-23T07:41:45.383Z,100.00
2022-10-23T07:52:00.831Z,100.00
2022-10-23T08:02:09.438Z,100.00
2022-10-23T08:12:11.208Z,100.00
2022-10-23T08:22:13.221Z,100.00
2022-10-23T08:32:16.013Z,98.52
2022-10-23T08:42:33.578Z,98.83
2022-10-23T08:52:38.607Z,99.44
2022-10-23T20:25:42.677Z,94.00
2022-10-23T20:36:04.894Z,94.09
2022-10-23T20:46:07.680Z,95.14
2022-10-23T20:56:46.412Z,94.84
2022-10-23T21:18:13.144Z,94.44
2022-10-23T21:28:36.838Z,94.59
2022-10-23T21:38:45.202Z,93.75
2022-10-23T21:48:47.037Z,94.86
2022-10-23T21:58:48.686Z,95.73
2022-10-23T22:08:50.900Z,96.71
2022-10-23T22:18:52.663Z,95.92
2022-10-23T22:29:00.355Z,95.66
2022-10-23T22:49:38.940Z,96.74
2022-10-23T23:00:00.121Z,95.40
2022-10-23T23:10:05.030Z,95.66
2022-10-23T23:20:10.810Z,95.13
2022-10-23T23:31:44.899Z,95.52
2022-10-23T23:41:39.768Z,95.40
2022-10-23T23:51:56.594Z,95.57
